Time;durP1;ratioP1;P1;durP2;ratioP2;P2;SDS_P1;SDS_P2;PMS_P1;PMS_P2;Temp;Humidity;BMP_temperature;BMP_pressure;BME280_temperature;BME280_humidity;BME280_pressure;Samples;Min_cycle;Max_cycle;Signal;HPM_P1;HPM_P2
2022/12/03 00:01:54;;;;;;;19.60;12.70;;;;;;;;;;5070181;28;20205;-42
2022/12/03 00:04:20;;;;;;;24.10;11.93;;;;;;;;;;5065248;28;20413;-42
2022/12/03 00:06:46;;;;;;;21.00;13.10;;;;;;;;;;5071386;28;20460;-42
2022/12/03 00:09:12;;;;;;;18.37;12.60;;;;;;;;;;5071249;28;20405;-42
2022/12/03 00:11:38;;;;;;;21.20;13.27;;;;;;;;;;5070490;28;20444;-41
2022/12/03 00:14:04;;;;;;;19.70;13.03;;;;;;;;;;5070778;28;20401;-41
2022/12/03 00:16:30;;;;;;;21.13;12.17;;;;;;;;;;5075050;28;20430;-42
2022/12/03 00:18:56;;;;;;;21.02;11.95;;;;;;;;;;5077834;28;20415;-41
2022/12/03 00:21:22;;;;;;;18.17;11.70;;;;;;;;;;5062861;28;20182;-41
2022/12/03 00:23:48;;;;;;;21.23;13.43;;;;;;;;;;5071358;28;20565;-40
2022/12/03 00:26:13;;;;;;;17.53;11.37;;;;;;;;;;5068610;28;20506;-41
2022/12/03 00:28:39;;;;;;;18.57;12.03;;;;;;;;;;5071107;28;20408;-42
2022/12/03 00:31:05;;;;;;;17.73;12.10;;;;;;;;;;5067469;28;20492;-42
2022/12/03 00:33:31;;;;;;;17.63;12.32;;;;;;;;;;5068574;28;20424;-40
2022/12/03 00:35:57;;;;;;;17.93;11.70;;;;;;;;;;5071291;28;20175;-41
2022/12/03 00:38:23;;;;;;;18.80;12.00;;;;;;;;;;5071132;28;20779;-41
2022/12/03 00:40:49;;;;;;;20.17;11.93;;;;;;;;;;5070343;28;20413;-43
2022/12/03 00:43:15;;;;;;;20.30;12.23;;;;;;;;;;5070893;28;20999;-40
2022/12/03 00:45:41;;;;;;;18.43;12.33;;;;;;;;;;5065739;28;20506;-41
2022/12/03 00:48:07;;;;;;;18.97;11.70;;;;;;;;;;5071103;28;20408;-41
2022/12/03 00:50:33;;;;;;;21.50;12.33;;;;;;;;;;5069944;28;20401;-42
2022/12/03 00:52:59;;;;;;;22.03;12.37;;;;;;;;;;5070985;28;20413;-40
2022/12/03 00:55:25;;;;;;;21.23;12.20;;;;;;;;;;5072617;28;20408;-41
2022/12/03 00:57:51;;;;;;;16.90;12.23;;;;;;;;;;5070619;28;20416;-41
2022/12/03 01:00:17;;;;;;;22.27;14.27;;;;;;;;;;5074149;28;20407;-40
2022/12/03 01:02:43;;;;;;;21.23;12.55;;;;;;;;;;5067412;28;20447;-41
2022/12/03 01:05:09;;;;;;;17.90;12.40;;;;;;;;;;5074198;28;20718;-41
2022/12/03 01:07:35;;;;;;;16.93;10.93;;;;;;;;;;5072596;28;20461;-41
2022/12/03 01:10:01;;;;;;;21.47;13.00;;;;;;;;;;5074085;28;20613;-42
2022/12/03 01:12:27;;;;;;;21.40;13.35;;;;;;;;;;5073725;28;20436;-42
2022/12/03 01:14:53;;;;;;;21.17;12.90;;;;;;;;;;5074263;28;20229;-41
2022/12/03 01:17:19;;;;;;;21.37;13.03;;;;;;;;;;5067325;28;20405;-42
2022/12/03 01:19:45;;;;;;;19.60;12.40;;;;;;;;;;5073498;28;20440;-42
2022/12/03 01:22:11;;;;;;;19.60;12.70;;;;;;;;;;5074071;28;20501;-40
2022/12/03 01:24:37;;;;;;;22.30;13.73;;;;;;;;;;5070635;28;20936;-40
2022/12/03 01:27:03;;;;;;;22.53;13.37;;;;;;;;;;5073686;28;20983;-41
2022/12/03 01:29:29;;;;;;;21.10;13.23;;;;;;;;;;5073976;28;20448;-40
2022/12/03 01:34:40;;;;;;;19.95;12.68;;;;;;;;;;5072311;28;20446;-41
2022/12/03 01:37:06;;;;;;;22.03;14.40;;;;;;;;;;5072526;28;20597;-41
2022/12/03 01:39:32;;;;;;;21.80;13.27;;;;;;;;;;5073660;28;20484;-42
2022/12/03 01:41:58;;;;;;;21.23;12.30;;;;;;;;;;5072922;28;20621;-41
2022/12/03 01:44:28;;;;;;;21.45;14.90;;;;;;;;;;5073845;28;20488;-42
2022/12/03 01:46:55;;;;;;;30.13;17.90;;;;;;;;;;5073598;28;20202;-41
2022/12/03 01:49:26;;;;;;;24.85;13.40;;;;;;;;;;5073256;28;20217;-44
2022/12/03 01:51:53;;;;;;;22.83;12.80;;;;;;;;;;5073094;28;20705;-41
2022/12/03 01:54:20;;;;;;;29.30;14.80;;;;;;;;;;5069435;28;20174;-41
2022/12/03 01:56:47;;;;;;;20.92;13.45;;;;;;;;;;5073120;28;20202;-41
2022/12/03 01:59:18;;;;;;;20.48;12.35;;;;;;;;;;5066874;28;20174;-41
2022/12/03 02:01:44;;;;;;;21.90;14.07;;;;;;;;;;5072346;28;20221;-41
2022/12/03 02:04:13;;;;;;;22.42;12.77;;;;;;;;;;5072066;28;20529;-41
2022/12/03 02:06:39;;;;;;;27.60;13.35;;;;;;;;;;5069486;28;20198;-41
2022/12/03 02:09:07;;;;;;;22.77;13.88;;;;;;;;;;5073240;28;20185;-41
2022/12/03 02:11:35;;;;;;;25.65;13.80;;;;;;;;;;5071660;28;20182;-43
2022/12/03 02:14:02;;;;;;;23.25;15.07;;;;;;;;;;5067676;28;20265;-42
2022/12/03 02:16:29;;;;;;;21.65;14.18;;;;;;;;;;5072956;28;20170;-41
2022/12/03 02:18:55;;;;;;;18.90;11.90;;;;;;;;;;5072695;28;20695;-42
2022/12/03 02:21:28;;;;;;;23.45;13.13;;;;;;;;;;5069346;28;20166;-42
2022/12/03 02:24:18;;;;;;;23.45;13.73;;;;;;;;;;5073036;28;20590;-43
2022/12/03 02:26:44;;;;;;;24.38;12.38;;;;;;;;;;5065779;28;20194;-43
2022/12/03 02:29:10;;;;;;;22.97;12.83;;;;;;;;;;5073168;28;20195;-41
2022/12/03 02:31:36;;;;;;;26.33;14.07;;;;;;;;;;5070535;28;20511;-41
2022/12/03 02:34:08;;;;;;;22.20;12.70;;;;;;;;;;5072318;28;20217;-42
2022/12/03 02:36:35;;;;;;;24.15;12.57;;;;;;;;;;5072810;28;20408;-41
2022/12/03 02:39:01;;;;;;;21.15;12.27;;;;;;;;;;5067795;28;20175;-42
2022/12/03 02:44:12;;;;;;;25.98;14.75;;;;;;;;;;5064555;28;20234;-41
2022/12/03 02:46:38;;;;;;;26.33;13.87;;;;;;;;;;5070132;28;20202;-43
2022/12/03 02:49:05;;;;;;;24.13;13.18;;;;;;;;;;5072360;28;20409;-42
2022/12/03 02:51:31;;;;;;;20.98;12.07;;;;;;;;;;5066676;28;20179;-41
2022/12/03 02:53:58;;;;;;;23.98;13.70;;;;;;;;;;5072634;28;20170;-41
2022/12/03 02:56:26;;;;;;;30.50;14.68;;;;;;;;;;5071918;28;20174;-41
2022/12/03 02:58:54;;;;;;;24.25;13.88;;;;;;;;;;5064768;28;20194;-43
2022/12/03 03:01:20;;;;;;;25.75;13.48;;;;;;;;;;5070038;28;20166;-41
2022/12/03 03:03:47;;;;;;;23.70;13.23;;;;;;;;;;5066881;28;20186;-42
2022/12/03 03:06:14;;;;;;;21.75;13.15;;;;;;;;;;5069413;28;20197;-42
2022/12/03 03:08:41;;;;;;;26.17;13.57;;;;;;;;;;5071866;28;20183;-42
2022/12/03 03:11:07;;;;;;;26.88;14.63;;;;;;;;;;5068953;28;20189;-41
2022/12/03 03:13:34;;;;;;;26.33;13.75;;;;;;;;;;5071728;28;20192;-41
2022/12/03 03:16:03;;;;;;;27.80;14.18;;;;;;;;;;5071735;28;20182;-41
2022/12/03 03:18:29;;;;;;;28.55;14.40;;;;;;;;;;5068123;28;20162;-41
2022/12/03 03:20:55;;;;;;;21.57;12.67;;;;;;;;;;5071503;28;20662;-41
2022/12/03 03:23:23;;;;;;;28.47;13.60;;;;;;;;;;5065464;28;21012;-42
2022/12/03 03:25:57;;;;;;;23.33;12.02;;;;;;;;;;5071230;28;20455;-41
2022/12/03 03:28:24;;;;;;;21.70;12.05;;;;;;;;;;5071820;28;20536;-41
2022/12/03 03:30:50;;;;;;;36.88;14.80;;;;;;;;;;5071325;28;20185;-41
2022/12/03 03:33:16;;;;;;;25.23;13.50;;;;;;;;;;5065856;28;20274;-41
2022/12/03 03:35:43;;;;;;;27.17;14.15;;;;;;;;;;5070006;28;20392;-41
2022/12/03 03:38:09;;;;;;;27.30;13.63;;;;;;;;;;5070658;28;20173;-43
2022/12/03 03:40:36;;;;;;;32.00;13.90;;;;;;;;;;5061422;28;20206;-42
2022/12/03 03:43:02;;;;;;;28.63;14.73;;;;;;;;;;5068779;28;20206;-42
2022/12/03 03:45:28;;;;;;;34.25;15.32;;;;;;;;;;5070539;28;20595;-42
2022/12/03 03:47:54;;;;;;;26.10;13.00;;;;;;;;;;5066447;28;20188;-41
2022/12/03 03:50:21;;;;;;;31.48;14.32;;;;;;;;;;5071649;28;20445;-41
2022/12/03 03:52:47;;;;;;;33.42;15.48;;;;;;;;;;5063269;28;20192;-42
2022/12/03 03:55:13;;;;;;;30.15;13.45;;;;;;;;;;5071049;28;20166;-41
2022/12/03 03:57:39;;;;;;;29.87;14.97;;;;;;;;;;5071504;28;20274;-42
2022/12/03 04:00:06;;;;;;;31.48;14.27;;;;;;;;;;5067833;28;20499;-42
2022/12/03 04:02:33;;;;;;;33.92;14.30;;;;;;;;;;5070325;28;20190;-41
2022/12/03 04:04:59;;;;;;;27.77;13.90;;;;;;;;;;5065209;28;20178;-42
2022/12/03 04:07:25;;;;;;;31.75;14.15;;;;;;;;;;5069309;28;20224;-42
2022/12/03 04:09:51;;;;;;;27.77;11.97;;;;;;;;;;5070773;28;20194;-41
2022/12/03 04:15:02;;;;;;;29.00;12.45;;;;;;;;;;5071406;28;20859;-41
2022/12/03 04:17:28;;;;;;;25.92;12.15;;;;;;;;;;5070693;28;20199;-42
2022/12/03 04:19:54;;;;;;;30.70;15.07;;;;;;;;;;5070989;28;20213;-44
2022/12/03 04:22:38;;;;;;;27.57;12.70;;;;;;;;;;5062524;28;20443;-42
2022/12/03 04:30:34;;;;;;;31.05;14.95;;;;;;;;;;5069978;28;20178;-42
2022/12/03 04:35:44;;;;;;;33.42;15.15;;;;;;;;;;5067290;28;20402;-42
2022/12/03 04:38:11;;;;;;;28.13;11.98;;;;;;;;;;5073349;28;20335;-42
2022/12/03 04:43:22;;;;;;;35.35;14.95;;;;;;;;;;5070281;28;20198;-41
2022/12/03 04:45:48;;;;;;;32.95;13.05;;;;;;;;;;5074587;28;20167;-43
2022/12/03 04:48:14;;;;;;;37.13;15.20;;;;;;;;;;5075142;28;20219;-41
2022/12/03 04:50:40;;;;;;;31.77;14.00;;;;;;;;;;5066760;28;20413;-42
2022/12/03 04:53:06;;;;;;;33.63;13.23;;;;;;;;;;5073328;28;20193;-43
2022/12/03 04:55:32;;;;;;;28.23;13.80;;;;;;;;;;5074522;28;20567;-41
2022/12/03 04:57:58;;;;;;;31.20;13.45;;;;;;;;;;5070181;28;20400;-42
2022/12/03 05:00:24;;;;;;;31.10;13.80;;;;;;;;;;5073163;28;20548;-42
2022/12/03 05:02:50;;;;;;;35.27;14.67;;;;;;;;;;5074249;28;20435;-41
2022/12/03 05:05:16;;;;;;;35.73;14.97;;;;;;;;;;5074386;28;20415;-41
2022/12/03 05:07:42;;;;;;;34.95;14.25;;;;;;;;;;5074098;28;20553;-42
2022/12/03 05:10:08;;;;;;;28.93;13.87;;;;;;;;;;5071721;28;20659;-41
2022/12/03 05:12:34;;;;;;;29.98;13.93;;;;;;;;;;5074110;28;20913;-42
2022/12/03 05:15:01;;;;;;;30.38;13.73;;;;;;;;;;5067796;28;20189;-42
2022/12/03 05:17:27;;;;;;;28.60;15.35;;;;;;;;;;5074358;28;20186;-42
2022/12/03 05:22:37;;;;;;;27.35;15.00;;;;;;;;;;5073601;28;20256;-41
2022/12/03 05:25:04;;;;;;;36.53;13.57;;;;;;;;;;5072286;28;20640;-42
2022/12/03 05:27:30;;;;;;;28.60;13.07;;;;;;;;;;5071880;28;20455;-43
2022/12/03 05:29:56;;;;;;;29.80;13.53;;;;;;;;;;5073895;28;20548;-42
2022/12/03 05:32:21;;;;;;;29.53;13.07;;;;;;;;;;5066183;28;20436;-42
2022/12/03 05:34:47;;;;;;;33.20;13.57;;;;;;;;;;5073215;28;20402;-42
2022/12/03 05:37:13;;;;;;;28.60;13.77;;;;;;;;;;5073588;28;20919;-41
2022/12/03 05:39:39;;;;;;;34.40;15.87;;;;;;;;;;5073891;28;20412;-42
2022/12/03 05:44:50;;;;;;;35.35;14.82;;;;;;;;;;5066104;28;20311;-42
2022/12/03 05:47:16;;;;;;;33.93;14.87;;;;;;;;;;5073589;28;20285;-42
2022/12/03 05:49:42;;;;;;;35.07;13.90;;;;;;;;;;5073425;28;20586;-42
2022/12/03 05:52:08;;;;;;;29.50;14.57;;;;;;;;;;5072875;28;20431;-41
2022/12/03 05:54:34;;;;;;;35.90;14.55;;;;;;;;;;5069474;28;20902;-42
2022/12/03 05:57:00;;;;;;;27.77;13.63;;;;;;;;;;5073413;28;20240;-42
2022/12/03 05:59:26;;;;;;;38.60;15.53;;;;;;;;;;5065937;28;20412;-42
2022/12/03 06:01:52;;;;;;;37.20;14.03;;;;;;;;;;5073319;28;20424;-42
2022/12/03 06:04:18;;;;;;;38.43;15.70;;;;;;;;;;5071222;28;20439;-43
2022/12/03 06:06:44;;;;;;;30.60;13.47;;;;;;;;;;5071999;28;21008;-42
2022/12/03 06:09:09;;;;;;;30.10;13.00;;;;;;;;;;5072603;28;20895;-41
2022/12/03 06:11:36;;;;;;;36.50;13.90;;;;;;;;;;5066935;28;20440;-42
2022/12/03 06:14:02;;;;;;;39.95;15.02;;;;;;;;;;5072553;28;20436;-42
2022/12/03 06:16:28;;;;;;;41.78;14.02;;;;;;;;;;5073469;28;20175;-40
2022/12/03 06:18:54;;;;;;;33.03;16.27;;;;;;;;;;5070884;28;20253;-41
2022/12/03 06:21:20;;;;;;;34.30;15.80;;;;;;;;;;5072103;28;20405;-41
2022/12/03 06:23:46;;;;;;;29.73;13.13;;;;;;;;;;5072264;28;20409;-41
2022/12/03 06:26:12;;;;;;;31.30;12.90;;;;;;;;;;5068178;28;20491;-41
2022/12/03 06:28:38;;;;;;;29.42;13.43;;;;;;;;;;5072816;28;20944;-42
2022/12/03 06:31:04;;;;;;;37.50;13.90;;;;;;;;;;5072572;28;20253;-42
2022/12/03 06:33:30;;;;;;;30.33;14.23;;;;;;;;;;5070492;28;20818;-42
2022/12/03 06:35:56;;;;;;;33.67;14.20;;;;;;;;;;5072645;28;20175;-43
2022/12/03 06:38:22;;;;;;;35.90;15.00;;;;;;;;;;5066692;28;20412;-41
2022/12/03 06:40:48;;;;;;;34.08;14.90;;;;;;;;;;5072450;28;20408;-42
2022/12/03 06:43:14;;;;;;;26.10;11.00;;;;;;;;;;5072801;28;20201;-42
2022/12/03 06:45:40;;;;;;;35.60;12.77;;;;;;;;;;5071446;28;20434;-41
2022/12/03 06:48:06;;;;;;;30.30;13.00;;;;;;;;;;5070259;28;20620;-41
2022/12/03 06:50:32;;;;;;;32.53;14.13;;;;;;;;;;5072371;28;20491;-41
2022/12/03 06:52:58;;;;;;;32.17;14.63;;;;;;;;;;5065300;28;20225;-41
2022/12/03 06:55:24;;;;;;;34.90;14.33;;;;;;;;;;5072376;28;20412;-43
2022/12/03 06:57:50;;;;;;;38.10;15.37;;;;;;;;;;5072318;28;20474;-42
2022/12/03 07:00:16;;;;;;;33.97;14.73;;;;;;;;;;5069512;28;20910;-41
2022/12/03 07:02:43;;;;;;;29.25;14.30;;;;;;;;;;5071538;28;20428;-42
2022/12/03 07:05:09;;;;;;;26.80;12.70;;;;;;;;;;5072253;28;20205;-42
2022/12/03 07:07:35;;;;;;;37.50;14.93;;;;;;;;;;5071655;28;20677;-42
2022/12/03 07:10:01;;;;;;;26.73;13.23;;;;;;;;;;5064637;28;20170;-42
2022/12/03 07:12:27;;;;;;;32.93;14.77;;;;;;;;;;5071750;28;20285;-42
2022/12/03 07:14:53;;;;;;;29.55;13.77;;;;;;;;;;5069645;28;20413;-42
2022/12/03 07:17:19;;;;;;;32.70;15.23;;;;;;;;;;5072247;28;20292;-41
2022/12/03 07:19:45;;;;;;;32.00;13.43;;;;;;;;;;5070355;28;20404;-42
2022/12/03 07:22:11;;;;;;;32.73;16.10;;;;;;;;;;5064877;28;20516;-43
2022/12/03 07:24:37;;;;;;;40.80;15.60;;;;;;;;;;5071884;28;20417;-41
2022/12/03 07:27:03;;;;;;;29.80;14.20;;;;;;;;;;5072029;28;20862;-41
2022/12/03 07:29:29;;;;;;;29.37;14.00;;;;;;;;;;5069033;28;20400;-41
2022/12/03 07:31:55;;;;;;;36.47;15.77;;;;;;;;;;5071556;28;20425;-42
2022/12/03 07:34:21;;;;;;;44.03;17.27;;;;;;;;;;5065688;28;20401;-42
2022/12/03 07:36:47;;;;;;;32.23;13.23;;;;;;;;;;5071391;28;20832;-42
2022/12/03 07:39:13;;;;;;;33.57;15.50;;;;;;;;;;5071252;28;20791;-42
2022/12/03 07:41:39;;;;;;;34.33;16.45;;;;;;;;;;5071292;28;20440;-43
2022/12/03 07:44:05;;;;;;;33.17;15.07;;;;;;;;;;5068728;28;20189;-43
2022/12/03 07:46:31;;;;;;;29.37;14.57;;;;;;;;;;5070663;28;20458;-41
2022/12/03 07:48:57;;;;;;;36.07;16.27;;;;;;;;;;5066203;28;20974;-41
2022/12/03 07:51:23;;;;;;;26.67;13.50;;;;;;;;;;5071033;28;20420;-42
2022/12/03 07:53:49;;;;;;;33.73;15.60;;;;;;;;;;5071220;28;20405;-41
2022/12/03 07:56:14;;;;;;;42.10;15.67;;;;;;;;;;5070524;28;20435;-41
2022/12/03 07:58:40;;;;;;;32.23;14.30;;;;;;;;;;5071045;28;20404;-41
2022/12/03 08:01:06;;;;;;;35.50;14.90;;;;;;;;;;5070738;28;20906;-43
2022/12/03 08:03:32;;;;;;;36.05;15.50;;;;;;;;;;5065549;28;20440;-43
2022/12/03 08:05:58;;;;;;;31.73;14.20;;;;;;;;;;5071471;28;20210;-41
2022/12/03 08:08:24;;;;;;;23.77;13.33;;;;;;;;;;5070818;28;20413;-41
2022/12/03 08:10:50;;;;;;;31.20;13.30;;;;;;;;;;5069021;28;20431;-41
2022/12/03 08:13:18;;;;;;;34.00;15.03;;;;;;;;;;5068286;28;20429;-42
2022/12/03 08:15:44;;;;;;;38.33;14.95;;;;;;;;;;5071134;28;20401;-41
2022/12/03 08:18:17;;;;;;;33.00;14.60;;;;;;;;;;5071547;28;20214;-41
2022/12/03 08:20:44;;;;;;;30.60;15.02;;;;;;;;;;5064013;28;20179;-40
2022/12/03 08:23:14;;;;;;;32.70;13.88;;;;;;;;;;5070361;28;20190;-42
2022/12/03 08:25:40;;;;;;;41.30;18.02;;;;;;;;;;5070348;28;20401;-41
2022/12/03 08:28:17;;;;;;;36.42;13.93;;;;;;;;;;5067800;28;20535;-41
2022/12/03 08:30:44;;;;;;;37.75;15.13;;;;;;;;;;5070130;28;20281;-41
2022/12/03 08:33:27;;;;;;;32.40;17.08;;;;;;;;;;5065866;28;20825;-41
2022/12/03 08:35:54;;;;;;;30.88;13.90;;;;;;;;;;5063456;28;20570;-43
2022/12/03 08:38:22;;;;;;;33.85;16.13;;;;;;;;;;5071034;28;20162;-43
2022/12/03 08:40:50;;;;;;;36.92;15.70;;;;;;;;;;5062871;28;20169;-41
2022/12/03 08:43:20;;;;;;;33.42;13.32;;;;;;;;;;5071007;28;20191;-42
2022/12/03 08:45:48;;;;;;;39.20;16.25;;;;;;;;;;5065788;28;20171;-41
2022/12/03 08:48:28;;;;;;;34.47;14.75;;;;;;;;;;5071120;28;20170;-41
2022/12/03 08:50:55;;;;;;;35.20;15.65;;;;;;;;;;5063408;28;20170;-42
2022/12/03 08:53:27;;;;;;;34.05;16.33;;;;;;;;;;5068929;28;20178;-42
2022/12/03 08:55:53;;;;;;;33.80;17.23;;;;;;;;;;5071056;28;20185;-42
2022/12/03 08:58:23;;;;;;;30.02;14.73;;;;;;;;;;5065548;28;20629;-42
2022/12/03 09:01:05;;;;;;;35.30;15.88;;;;;;;;;;5060267;28;20224;-41
2022/12/03 09:03:31;;;;;;;35.78;16.83;;;;;;;;;;5068625;28;20213;-41
2022/12/03 09:05:57;;;;;;;37.20;14.75;;;;;;;;;;5070364;28;20804;-42
2022/12/03 09:08:23;;;;;;;38.35;15.85;;;;;;;;;;5070923;28;20190;-43
2022/12/03 09:10:49;;;;;;;30.13;14.70;;;;;;;;;;5067010;28;20221;-41
2022/12/03 09:13:15;;;;;;;34.35;15.70;;;;;;;;;;5065152;28;21191;-41
2022/12/03 09:15:41;;;;;;;30.37;14.90;;;;;;;;;;5071489;28;20170;-41
2022/12/03 09:18:07;;;;;;;35.37;14.80;;;;;;;;;;5074587;28;20890;-41
2022/12/03 09:20:33;;;;;;;36.23;15.27;;;;;;;;;;5071865;28;20825;-42
2022/12/03 09:22:59;;;;;;;36.87;14.37;;;;;;;;;;5074125;28;20866;-42
2022/12/03 09:25:25;;;;;;;34.97;16.20;;;;;;;;;;5074307;28;20411;-41
2022/12/03 09:27:51;;;;;;;34.33;16.40;;;;;;;;;;5068665;28;20547;-41
2022/12/03 09:30:17;;;;;;;33.17;14.48;;;;;;;;;;5074211;28;20416;-41
2022/12/03 09:32:43;;;;;;;35.13;14.40;;;;;;;;;;5073423;28;20194;-42
2022/12/03 09:35:09;;;;;;;31.98;15.77;;;;;;;;;;5073615;28;20405;-41
2022/12/03 09:37:35;;;;;;;33.55;16.88;;;;;;;;;;5074020;28;20257;-41
2022/12/03 09:40:01;;;;;;;28.57;13.83;;;;;;;;;;5075716;28;20260;-41
2022/12/03 09:42:27;;;;;;;28.88;14.15;;;;;;;;;;5062103;28;20425;-41
2022/12/03 09:44:53;;;;;;;33.78;15.98;;;;;;;;;;5073462;28;20750;-41
2022/12/03 09:47:19;;;;;;;38.30;15.97;;;;;;;;;;5073923;28;20280;-41
2022/12/03 09:49:45;;;;;;;36.90;14.85;;;;;;;;;;5071855;28;20451;-42
2022/12/03 09:52:16;;;;;;;31.08;14.60;;;;;;;;;;5072946;28;20194;-41
2022/12/03 09:54:42;;;;;;;30.83;14.98;;;;;;;;;;5073627;28;20180;-41
2022/12/03 09:57:12;;;;;;;33.10;14.57;;;;;;;;;;5068824;28;20171;-41
2022/12/03 09:59:38;;;;;;;31.80;15.40;;;;;;;;;;5071922;28;20170;-41
2022/12/03 10:02:12;;;;;;;32.00;15.45;;;;;;;;;;5073242;28;20194;-41
2022/12/03 10:04:38;;;;;;;35.25;14.80;;;;;;;;;;5072245;28;20177;-44
2022/12/03 10:07:04;;;;;;;30.30;15.90;;;;;;;;;;5070184;28;20202;-40
2022/12/03 10:09:30;;;;;;;33.90;14.50;;;;;;;;;;5073559;28;20435;-42
2022/12/03 10:11:58;;;;;;;31.60;16.10;;;;;;;;;;5066431;28;20436;-42
2022/12/03 10:14:24;;;;;;;26.48;13.18;;;;;;;;;;5072747;28;20432;-43
2022/12/03 10:16:50;;;;;;;30.13;16.13;;;;;;;;;;5073311;28;20299;-41
2022/12/03 10:19:21;;;;;;;38.30;15.70;;;;;;;;;;5070602;28;20183;-40
2022/12/03 10:21:47;;;;;;;31.13;15.95;;;;;;;;;;5064500;28;20428;-41
2022/12/03 10:24:21;;;;;;;37.22;15.65;;;;;;;;;;5073061;28;20272;-41
2022/12/03 10:26:48;;;;;;;29.83;14.35;;;;;;;;;;5072932;28;20194;-42
2022/12/03 10:29:16;;;;;;;30.98;14.40;;;;;;;;;;5064386;28;20254;-42
2022/12/03 10:31:42;;;;;;;30.42;15.60;;;;;;;;;;5072016;28;20194;-41
2022/12/03 10:34:09;;;;;;;34.70;16.57;;;;;;;;;;5069680;28;20189;-41
2022/12/03 10:36:35;;;;;;;26.08;13.40;;;;;;;;;;5072385;28;20412;-41
2022/12/03 10:39:08;;;;;;;30.33;14.35;;;;;;;;;;5069145;28;20193;-41
2022/12/03 10:41:35;;;;;;;29.02;14.20;;;;;;;;;;5070712;28;20185;-41
2022/12/03 10:44:12;;;;;;;33.30;16.38;;;;;;;;;;5072104;28;20171;-41
2022/12/03 10:46:38;;;;;;;27.88;14.68;;;;;;;;;;5071218;28;20233;-41
2022/12/03 10:49:08;;;;;;;27.60;14.63;;;;;;;;;;5069308;28;20596;-42
2022/12/03 10:51:34;;;;;;;27.02;13.45;;;;;;;;;;5071766;28;20495;-41
2022/12/03 10:54:01;;;;;;;25.73;13.57;;;;;;;;;;5065350;28;20202;-41
2022/12/03 10:56:27;;;;;;;34.47;18.50;;;;;;;;;;5063189;28;20181;-44
2022/12/03 10:58:54;;;;;;;41.22;15.50;;;;;;;;;;5069121;28;20682;-42
2022/12/03 11:01:24;;;;;;;29.60;14.05;;;;;;;;;;5068579;28;20178;-41
2022/12/03 11:03:50;;;;;;;30.92;14.93;;;;;;;;;;5064293;28;20170;-41
2022/12/03 11:06:17;;;;;;;31.67;15.65;;;;;;;;;;5071487;28;20254;-42
2022/12/03 11:08:45;;;;;;;25.33;13.50;;;;;;;;;;5065551;28;20212;-41
2022/12/03 11:11:18;;;;;;;29.23;14.43;;;;;;;;;;5069310;28;20312;-42
2022/12/03 11:13:49;;;;;;;36.17;15.95;;;;;;;;;;5071553;28;20589;-41
2022/12/03 11:16:35;;;;;;;30.60;15.15;;;;;;;;;;5067894;28;20216;-42
2022/12/03 11:19:02;;;;;;;28.23;15.57;;;;;;;;;;5060199;28;20542;-42
2022/12/03 11:21:28;;;;;;;32.88;15.85;;;;;;;;;;5071773;28;20208;-41
2022/12/03 11:23:54;;;;;;;25.13;13.65;;;;;;;;;;5066811;28;20589;-41
2022/12/03 11:26:29;;;;;;;34.73;15.00;;;;;;;;;;5060920;28;20201;-42
2022/12/03 11:28:55;;;;;;;30.17;15.70;;;;;;;;;;5062292;28;20904;-41
2022/12/03 11:31:34;;;;;;;27.90;13.45;;;;;;;;;;5065505;28;20182;-42
2022/12/03 11:34:18;;;;;;;30.08;16.60;;;;;;;;;;5062423;28;20223;-42
2022/12/03 11:37:03;;;;;;;26.40;14.98;;;;;;;;;;5062795;28;20235;-42
2022/12/03 11:39:44;;;;;;;31.48;16.08;;;;;;;;;;5062417;28;20178;-44
2022/12/03 11:42:24;;;;;;;31.25;15.10;;;;;;;;;;5066818;28;20197;-41
2022/12/03 11:45:10;;;;;;;29.13;15.82;;;;;;;;;;5064092;28;20178;-42
2022/12/03 11:47:37;;;;;;;34.17;15.20;;;;;;;;;;5059142;28;20229;-41
2022/12/03 11:50:21;;;;;;;25.30;14.25;;;;;;;;;;5068608;28;20189;-42
2022/12/03 11:52:49;;;;;;;31.83;14.77;;;;;;;;;;5053343;28;20191;-43
2022/12/03 11:55:32;;;;;;;33.72;14.18;;;;;;;;;;5068479;28;20764;-40
2022/12/03 11:57:59;;;;;;;30.98;14.70;;;;;;;;;;5060901;28;20174;-41
2022/12/03 12:00:25;;;;;;;42.65;15.40;;;;;;;;;;5071524;28;20177;-41
2022/12/03 12:02:53;;;;;;;29.42;14.15;;;;;;;;;;5069129;28;20263;-41
2022/12/03 12:05:20;;;;;;;29.50;16.10;;;;;;;;;;5067877;28;20228;-41
2022/12/03 12:07:46;;;;;;;35.47;15.63;;;;;;;;;;5071065;28;20592;-42
2022/12/03 12:10:14;;;;;;;33.58;15.77;;;;;;;;;;5071431;28;20612;-41
2022/12/03 12:12:43;;;;;;;34.05;15.93;;;;;;;;;;5068297;28;20202;-41
2022/12/03 12:15:27;;;;;;;29.83;15.07;;;;;;;;;;5071517;28;20259;-41
2022/12/03 12:17:53;;;;;;;31.17;15.77;;;;;;;;;;5057902;28;20232;-42
2022/12/03 12:20:24;;;;;;;30.73;15.57;;;;;;;;;;5071453;28;20174;-42
2022/12/03 12:22:50;;;;;;;29.35;15.38;;;;;;;;;;5062245;28;20837;-41
2022/12/03 12:25:35;;;;;;;28.65;14.80;;;;;;;;;;5071433;28;20572;-41
2022/12/03 12:28:01;;;;;;;27.40;14.93;;;;;;;;;;5065084;28;20281;-41
2022/12/03 12:30:27;;;;;;;33.10;16.00;;;;;;;;;;5071115;28;20249;-41
2022/12/03 12:32:56;;;;;;;27.90;13.63;;;;;;;;;;5071112;28;20424;-42
2022/12/03 12:35:27;;;;;;;29.98;15.98;;;;;;;;;;5063495;28;20439;-42
2022/12/03 12:37:54;;;;;;;33.38;15.10;;;;;;;;;;5070180;28;20174;-41
2022/12/03 12:40:22;;;;;;;25.77;13.68;;;;;;;;;;5071295;28;20171;-41
2022/12/03 12:42:49;;;;;;;30.25;15.27;;;;;;;;;;5058508;28;20235;-41
2022/12/03 12:45:15;;;;;;;34.92;16.88;;;;;;;;;;5071099;28;20171;-41
2022/12/03 12:48:02;;;;;;;28.27;15.02;;;;;;;;;;5068860;28;20206;-40
2022/12/03 12:50:29;;;;;;;31.67;16.05;;;;;;;;;;5067607;28;20162;-41
2022/12/03 12:53:15;;;;;;;32.45;16.98;;;;;;;;;;5067951;28;20214;-41
2022/12/03 12:55:41;;;;;;;35.50;14.55;;;;;;;;;;5073522;28;20246;-40
2022/12/03 12:58:12;;;;;;;37.40;14.57;;;;;;;;;;5074618;28;20269;-40
2022/12/03 13:00:38;;;;;;;34.40;15.25;;;;;;;;;;5074737;28;20495;-40
2022/12/03 13:03:04;;;;;;;31.23;14.30;;;;;;;;;;5074738;28;20279;-41
2022/12/03 13:05:34;;;;;;;32.03;15.57;;;;;;;;;;5072365;28;20427;-41
2022/12/03 13:08:00;;;;;;;30.08;14.10;;;;;;;;;;5061713;28;20190;-40
2022/12/03 13:10:29;;;;;;;27.70;13.30;;;;;;;;;;5068582;28;20194;-40
2022/12/03 13:12:55;;;;;;;37.00;16.55;;;;;;;;;;5071793;28;20430;-40
2022/12/03 13:15:36;;;;;;;31.20;15.73;;;;;;;;;;5054889;28;20571;-42
2022/12/03 13:18:10;;;;;;;29.83;15.90;;;;;;;;;;5054083;28;20408;-40
2022/12/03 13:20:36;;;;;;;34.63;15.15;;;;;;;;;;5074391;28;20178;-41
2022/12/03 13:23:05;;;;;;;41.25;17.05;;;;;;;;;;5074157;28;20193;-40
2022/12/03 13:25:31;;;;;;;30.40;15.00;;;;;;;;;;5074704;28;20182;-40
2022/12/03 13:27:57;;;;;;;30.30;15.83;;;;;;;;;;5074359;28;20203;-41
2022/12/03 13:30:23;;;;;;;36.00;16.27;;;;;;;;;;5074348;28;20765;-40
2022/12/03 13:32:48;;;;;;;30.50;15.10;;;;;;;;;;5069356;28;20433;-43
2022/12/03 13:35:26;;;;;;;34.60;15.87;;;;;;;;;;5054052;28;20416;-40
2022/12/03 13:37:52;;;;;;;31.17;15.77;;;;;;;;;;5054371;28;20393;-40
2022/12/03 13:40:33;;;;;;;32.20;15.48;;;;;;;;;;5054366;28;20164;-40
2022/12/03 13:43:00;;;;;;;29.95;15.18;;;;;;;;;;5054018;28;20256;-42
2022/12/03 13:45:30;;;;;;;31.90;15.43;;;;;;;;;;5053909;28;20186;-41
2022/12/03 13:48:00;;;;;;;35.15;15.75;;;;;;;;;;5053846;28;20202;-40
2022/12/03 13:50:35;;;;;;;29.33;13.43;;;;;;;;;;5054043;28;20191;-41
2022/12/03 13:53:02;;;;;;;33.35;15.80;;;;;;;;;;5063583;28;20228;-41
2022/12/03 13:55:30;;;;;;;28.35;14.65;;;;;;;;;;5073955;28;20181;-40
2022/12/03 13:57:56;;;;;;;36.35;17.05;;;;;;;;;;5069645;28;20167;-41
2022/12/03 14:00:23;;;;;;;30.45;15.43;;;;;;;;;;5069703;28;20223;-40
2022/12/03 14:02:49;;;;;;;32.17;14.98;;;;;;;;;;5073055;28;20265;-40
2022/12/03 14:05:15;;;;;;;31.40;15.20;;;;;;;;;;5071118;28;20257;-40
2022/12/03 14:07:40;;;;;;;41.13;18.40;;;;;;;;;;5073601;28;20475;-41
2022/12/03 14:10:07;;;;;;;33.67;16.07;;;;;;;;;;5067671;28;20167;-40
2022/12/03 14:12:34;;;;;;;35.67;15.50;;;;;;;;;;5073230;28;20420;-40
2022/12/03 14:15:00;;;;;;;31.25;16.45;;;;;;;;;;5073752;28;20202;-40
2022/12/03 14:17:26;;;;;;;25.25;13.75;;;;;;;;;;5069968;28;20258;-41
2022/12/03 14:19:52;;;;;;;33.22;15.90;;;;;;;;;;5072266;28;20663;-41
2022/12/03 14:22:22;;;;;;;31.47;15.13;;;;;;;;;;5072546;28;20198;-42
2022/12/03 14:24:48;;;;;;;33.55;16.20;;;;;;;;;;5070781;28;20902;-42
2022/12/03 14:27:14;;;;;;;27.52;15.27;;;;;;;;;;5065124;28;20332;-42
2022/12/03 14:29:40;;;;;;;31.90;15.10;;;;;;;;;;5072992;28;20224;-43
2022/12/03 14:32:06;;;;;;;31.70;13.80;;;;;;;;;;5071645;28;20445;-41
2022/12/03 14:34:32;;;;;;;31.23;15.63;;;;;;;;;;5068034;28;20406;-42
2022/12/03 14:36:58;;;;;;;34.60;17.07;;;;;;;;;;5072795;28;20416;-42
2022/12/03 14:39:24;;;;;;;37.43;15.60;;;;;;;;;;5071894;28;20401;-43
2022/12/03 14:44:35;;;;;;;26.08;14.52;;;;;;;;;;5072226;28;20240;-41
2022/12/03 14:47:01;;;;;;;30.07;15.37;;;;;;;;;;5072661;28;20667;-42